Time;durP1;ratioP1;P1;durP2;ratioP2;P2;SDS_P1;SDS_P2;PMS_P1;PMS_P2;Temp;Humidity;BMP_temperature;BMP_pressure;BME280_temperature;BME280_humidity;BME280_pressure;Samples;Min_cycle;Max_cycle;Signal;HPM_P1;HPM_P2
2023/12/12 00:01:25;;;;;;;7.85;4.13;;;;;;;15.45;87.99;98384.78;5093374;28;20020;-46
2023/12/12 00:03:50;;;;;;;10.18;4.20;;;;;;;15.41;89.35;98391.59;5092061;28;20024;-46
2023/12/12 00:06:17;;;;;;;13.43;4.10;;;;;;;15.66;90.02;98390.41;5091936;28;20194;-46
2023/12/12 00:08:42;;;;;;;14.45;4.68;;;;;;;15.98;89.51;98390.66;5092994;28;20016;-46
2023/12/12 00:11:08;;;;;;;10.52;7.45;;;;;;;16.01;87.97;98382.22;5091797;28;20489;-46
2023/12/12 00:13:34;;;;;;;11.75;5.38;;;;;;;15.98;87.96;98390.66;5091774;28;20138;-46
2023/12/12 00:16:00;;;;;;;7.38;4.80;;;;;;;15.84;87.53;98403.44;5074860;28;20024;-46
2023/12/12 00:18:25;;;;;;;6.53;4.68;;;;;;;15.74;88.22;98401.41;5091755;28;20024;-46
2023/12/12 00:20:51;;;;;;;9.27;4.05;;;;;;;15.92;89.19;98402.22;5093076;28;20028;-46
2023/12/12 00:23:17;;;;;;;8.68;4.40;;;;;;;16.17;88.13;98402.56;5092956;28;20028;-46
2023/12/12 00:25:42;;;;;;;8.68;4.53;;;;;;;16.52;87.79;98412.06;5092988;28;20504;-46
2023/12/12 00:28:08;;;;;;;5.40;4.22;;;;;;;16.42;86.15;98409.28;5092973;28;20450;-46
2023/12/12 00:30:33;;;;;;;10.98;4.55;;;;;;;16.27;86.41;98409.88;5092863;28;20060;-46
2023/12/12 00:32:59;;;;;;;8.23;4.57;;;;;;;16.59;86.45;98411.88;5091721;28;20028;-46
2023/12/12 00:35:25;;;;;;;7.70;5.18;;;;;;;16.74;84.88;98393.53;5092412;28;20068;-46
2023/12/12 00:37:51;;;;;;;11.65;4.65;;;;;;;16.52;85.30;98395.34;5092741;28;20119;-46
2023/12/12 00:40:17;;;;;;;8.48;4.43;;;;;;;16.44;86.58;98388.66;5092536;28;20588;-46
2023/12/12 00:42:43;;;;;;;14.23;11.85;;;;;;;16.45;85.68;98398.19;5092718;28;20067;-46
2023/12/12 00:45:09;;;;;;;5.68;4.75;;;;;;;16.21;85.96;98386.22;5091226;28;20486;-46
2023/12/12 00:47:35;;;;;;;6.70;4.75;;;;;;;16.22;86.85;98387.81;5091303;28;20520;-46
2023/12/12 00:50:02;;;;;;;9.73;7.13;;;;;;;16.45;85.87;98376.19;5091175;28;20024;-46
2023/12/12 00:52:29;;;;;;;10.32;4.80;;;;;;;16.56;83.59;98384.03;5091025;28;20031;-46
2023/12/12 00:54:57;;;;;;;5.45;4.57;;;;;;;16.55;82.49;98373.69;5092459;28;20027;-46
2023/12/12 00:57:23;;;;;;;6.10;4.22;;;;;;;16.42;82.78;98374.84;5092288;28;20032;-46
2023/12/12 00:59:48;;;;;;;7.35;4.25;;;;;;;16.21;83.37;98372.97;5091028;28;20027;-46
2023/12/12 01:02:14;;;;;;;6.18;4.35;;;;;;;15.98;83.74;98364.19;5090922;28;20051;-46
2023/12/12 01:04:39;;;;;;;14.07;8.38;;;;;;;15.65;84.66;98368.44;5090937;28;20036;-46
2023/12/12 01:07:05;;;;;;;10.77;7.70;;;;;;;15.66;87.17;98363.97;5090867;28;20023;-46
2023/12/12 01:09:31;;;;;;;13.10;9.50;;;;;;;15.73;87.83;98354.03;5092273;28;20032;-46
2023/12/12 01:11:56;;;;;;;8.65;5.35;;;;;;;15.86;87.81;98351.06;5092172;28;20032;-46
2023/12/12 01:14:22;;;;;;;8.75;5.22;;;;;;;15.85;86.90;98354.75;5092019;28;20019;-46
2023/12/12 01:16:47;;;;;;;7.85;5.63;;;;;;;15.76;85.92;98357.00;5092027;28;20028;-46
2023/12/12 01:19:13;;;;;;;10.27;6.38;;;;;;;15.69;86.35;98360.81;5090635;28;20489;-46
2023/12/12 01:21:39;;;;;;;24.67;22.20;;;;;;;15.61;86.21;98364.66;5090163;28;20127;-46
2023/12/12 01:24:05;;;;;;;182.05;165.68;;;;;;;15.43;86.69;98360.41;5092006;28;20458;-46
2023/12/12 01:26:30;;;;;;;27.25;23.30;;;;;;;15.23;88.03;98352.97;5091935;28;20043;-48
2023/12/12 01:28:56;;;;;;;13.98;11.13;;;;;;;14.91;87.93;98342.91;5091887;28;20016;-49
2023/12/12 01:31:21;;;;;;;12.18;10.93;;;;;;;14.61;89.08;98345.75;5091816;28;20145;-48
2023/12/12 01:33:48;;;;;;;9.60;7.90;;;;;;;14.61;91.05;98348.41;5091771;28;20496;-49
2023/12/12 01:36:14;;;;;;;21.80;16.02;;;;;;;14.53;91.86;98343.47;5091543;28;20040;-49
2023/12/12 01:38:40;;;;;;;10.52;7.00;;;;;;;14.92;94.26;98341.03;5090772;28;20094;-48
2023/12/12 01:41:05;;;;;;;10.48;6.60;;;;;;;14.92;93.89;98346.34;5090749;28;20050;-48
2023/12/12 01:43:33;;;;;;;24.20;21.75;;;;;;;14.87;96.02;98347.03;5091807;28;20028;-48
2023/12/12 01:46:01;;;;;;;18.10;16.35;;;;;;;15.20;98.82;98334.13;5091712;28;20517;-48
2023/12/12 01:48:28;;;;;;;11.05;7.32;;;;;;;15.68;100.00;98335.44;5090445;28;20024;-48
2023/12/12 01:50:55;;;;;;;12.82;6.80;;;;;;;15.88;99.22;98337.59;5090354;28;20032;-48
2023/12/12 01:53:24;;;;;;;9.32;6.43;;;;;;;15.95;96.89;98339.00;5090273;28;20043;-48
2023/12/12 01:55:52;;;;;;;10.90;6.15;;;;;;;15.55;96.03;98344.47;5091665;28;20390;-48
2023/12/12 01:58:20;;;;;;;9.48;6.40;;;;;;;15.46;99.80;98335.34;5091633;28;20100;-48
2023/12/12 02:00:47;;;;;;;11.10;6.82;;;;;;;15.32;99.85;98334.84;5091606;28;20020;-48
2023/12/12 02:03:14;;;;;;;20.58;15.00;;;;;;;15.19;100.00;98335.94;5091619;28;20024;-48
2023/12/12 02:05:41;;;;;;;10.27;9.07;;;;;;;15.00;100.00;98339.88;5091619;28;20020;-48
2023/12/12 02:08:07;;;;;;;33.20;29.45;;;;;;;14.58;100.00;98335.66;5090182;28;20039;-48
2023/12/12 02:10:34;;;;;;;13.38;12.00;;;;;;;14.32;100.00;98336.97;5090234;28;20147;-48
2023/12/12 02:13:01;;;;;;;38.28;32.58;;;;;;;14.24;100.00;98334.69;5091730;28;20104;-48
2023/12/12 02:15:27;;;;;;;8.57;7.72;;;;;;;14.26;100.00;98320.22;5091521;28;20501;-48
2023/12/12 02:17:52;;;;;;;13.38;6.18;;;;;;;14.37;100.00;98315.97;5090154;28;20051;-48
2023/12/12 02:20:18;;;;;;;10.93;7.10;;;;;;;14.83;100.00;98316.84;5090140;28;20390;-48
2023/12/12 02:22:44;;;;;;;8.70;4.95;;;;;;;14.89;100.00;98315.91;5091453;28;20120;-48
2023/12/12 02:25:10;;;;;;;10.10;7.45;;;;;;;14.70;100.00;98310.00;5091586;28;20058;-48
2023/12/12 02:27:39;;;;;;;9.55;6.60;;;;;;;15.12;100.00;98307.03;5090107;28;20025;-48
2023/12/12 02:30:06;;;;;;;5.90;3.50;;;;;;;15.66;100.00;98295.97;5091341;28;20016;-49
2023/12/12 02:32:31;;;;;;;7.70;3.92;;;;;;;15.95;100.00;98301.16;5094027;28;20058;-48
2023/12/12 02:34:57;;;;;;;9.82;4.47;;;;;;;15.96;100.00;98290.34;5095021;28;20093;-48
2023/12/12 02:37:23;;;;;;;5.90;3.42;;;;;;;15.83;100.00;98282.72;5094844;28;20044;-48
2023/12/12 02:39:48;;;;;;;7.00;3.10;;;;;;;15.65;100.00;98286.44;5095014;28;20612;-48
2023/12/12 02:42:14;;;;;;;223.10;142.23;;;;;;;16.18;100.00;98285.06;5093570;28;20060;-48
2023/12/12 02:44:40;;;;;;;112.15;93.50;;;;;;;16.40;100.00;98276.31;5094870;28;20118;-48
2023/12/12 02:47:05;;;;;;;84.70;67.40;;;;;;;16.37;100.00;98272.28;5094780;28;20030;-48
2023/12/12 02:49:31;;;;;;;37.58;30.50;;;;;;;16.52;99.97;98268.19;5094850;28;20020;-49
2023/12/12 02:51:57;;;;;;;33.15;26.17;;;;;;;16.85;99.94;98267.22;5094713;28;20440;-48
2023/12/12 02:54:22;;;;;;;29.45;20.65;;;;;;;17.33;97.03;98270.81;5094607;28;20024;-49
2023/12/12 02:56:48;;;;;;;15.85;13.70;;;;;;;17.47;94.00;98265.06;5094698;28;20017;-48
2023/12/12 02:59:13;;;;;;;20.23;14.27;;;;;;;17.43;93.61;98266.63;5094609;28;20035;-49
2023/12/12 03:01:39;;;;;;;12.75;7.43;;;;;;;17.53;93.81;98250.78;5094567;28;20077;-49
2023/12/12 03:04:05;;;;;;;8.88;7.70;;;;;;;17.50;93.76;98256.59;5093178;28;20031;-49
2023/12/12 03:06:30;;;;;;;9.10;5.95;;;;;;;17.71;94.28;98268.94;5093172;28;20020;-48
2023/12/12 03:08:56;;;;;;;5.47;4.25;;;;;;;17.86;93.86;98270.09;5094469;28;20394;-49
2023/12/12 03:11:21;;;;;;;8.32;4.93;;;;;;;17.69;92.96;98263.09;5094359;28;20016;-46
2023/12/12 03:13:47;;;;;;;15.98;10.75;;;;;;;17.76;91.66;98262.84;5092924;28;20020;-46
2023/12/12 03:16:13;;;;;;;9.55;4.53;;;;;;;17.51;91.14;98260.84;5094275;28;20028;-46
2023/12/12 03:18:38;;;;;;;10.13;4.32;;;;;;;17.25;90.33;98262.53;5092977;28;20024;-46
2023/12/12 03:21:04;;;;;;;5.43;3.72;;;;;;;16.78;91.75;98264.75;5094144;28;20020;-46
2023/12/12 03:23:30;;;;;;;6.93;4.10;;;;;;;16.51;93.72;98253.38;5092838;28;20032;-46
2023/12/12 03:25:56;;;;;;;20.50;3.90;;;;;;;16.52;94.30;98253.13;5094101;28;20099;-46
2023/12/12 03:28:21;;;;;;;7.93;3.65;;;;;;;16.38;94.09;98251.91;5094074;28;20027;-46
2023/12/12 03:30:47;;;;;;;7.38;4.18;;;;;;;15.98;93.62;98264.41;5094021;28;20103;-46
2023/12/12 03:33:12;;;;;;;7.22;3.80;;;;;;;15.71;95.06;98268.78;5092578;28;20024;-46
2023/12/12 03:35:38;;;;;;;11.27;6.10;;;;;;;15.53;96.52;98275.16;5092291;28;20048;-46
2023/12/12 03:38:04;;;;;;;11.23;4.10;;;;;;;15.78;98.35;98272.91;5093854;28;20401;-46
2023/12/12 03:40:30;;;;;;;4.15;3.20;;;;;;;16.14;97.17;98259.31;5092492;28;20040;-46
2023/12/12 03:42:55;;;;;;;8.60;5.22;;;;;;;15.90;95.64;98256.13;5093139;28;20051;-46
2023/12/12 03:45:21;;;;;;;5.90;4.25;;;;;;;15.93;96.64;98239.72;5092349;28;20020;-46
2023/12/12 03:47:46;;;;;;;12.02;10.35;;;;;;;15.86;97.00;98244.41;5093722;28;20051;-46
2023/12/12 03:50:12;;;;;;;5.40;4.10;;;;;;;15.80;96.59;98240.91;5092226;28;20452;-46
2023/12/12 03:52:39;;;;;;;8.90;7.85;;;;;;;16.00;97.53;98237.72;5092207;28;20080;-46
2023/12/12 03:55:07;;;;;;;9.18;4.38;;;;;;;16.37;97.68;98239.72;5092165;28;20031;-46
2023/12/12 03:57:32;;;;;;;7.50;3.92;;;;;;;16.52;96.12;98239.88;5093519;28;20027;-46
2023/12/12 03:59:58;;;;;;;15.93;4.47;;;;;;;16.71;93.85;98248.25;5093488;28;20017;-46
2023/12/12 04:02:24;;;;;;;167.55;153.70;;;;;;;16.80;93.07;98238.00;5092065;28;20028;-46
2023/12/12 04:04:49;;;;;;;39.85;36.45;;;;;;;16.47;92.02;98234.50;5093582;28;20024;-46
2023/12/12 04:07:17;;;;;;;10.73;8.65;;;;;;;16.33;93.30;98243.91;5093237;28;20024;-46
2023/12/12 04:09:43;;;;;;;9.55;6.72;;;;;;;16.16;92.93;98252.72;5091952;28;20109;-46
2023/12/12 04:12:08;;;;;;;9.23;6.68;;;;;;;16.46;93.71;98250.66;5091842;28;20111;-46
2023/12/12 04:14:34;;;;;;;7.13;4.90;;;;;;;16.78;91.42;98245.41;5093140;28;20020;-46
2023/12/12 04:17:00;;;;;;;7.60;5.00;;;;;;;16.51;88.62;98251.50;5093060;28;20133;-46
2023/12/12 04:19:25;;;;;;;8.27;4.95;;;;;;;16.48;90.27;98254.66;5093105;28;20027;-46
2023/12/12 04:21:51;;;;;;;10.65;6.55;;;;;;;16.43;88.42;98265.19;5093026;28;20024;-46
2023/12/12 04:24:17;;;;;;;11.90;9.18;;;;;;;16.17;88.13;98256.97;5092954;28;20057;-46
2023/12/12 04:26:43;;;;;;;8.02;5.97;;;;;;;16.23;89.83;98257.81;5092928;28;20020;-46
2023/12/12 04:29:09;;;;;;;7.35;4.72;;;;;;;16.58;89.10;98251.31;5092905;28;20067;-46
2023/12/12 04:31:36;;;;;;;10.05;4.68;;;;;;;16.70;87.47;98254.63;5092809;28;20016;-46
2023/12/12 04:34:02;;;;;;;9.23;3.90;;;;;;;16.44;87.55;98247.44;5091392;28;20116;-46
2023/12/12 04:36:27;;;;;;;5.53;4.10;;;;;;;16.38;87.09;98243.97;5092543;28;20409;-46
2023/12/12 04:38:53;;;;;;;7.82;4.30;;;;;;;15.99;87.16;98238.75;5092693;28;20059;-46
2023/12/12 04:41:18;;;;;;;13.60;4.22;;;;;;;16.24;88.48;98237.44;5092879;28;20020;-46
2023/12/12 04:43:44;;;;;;;6.85;4.43;;;;;;;16.41;85.97;98243.47;5092632;28;20558;-46
2023/12/12 04:46:17;;;;;;;38.00;34.17;;;;;;;16.08;84.79;98231.97;5092520;28;20024;-46
2023/12/12 04:48:43;;;;;;;8.13;6.28;;;;;;;15.82;84.94;98224.78;5092607;28;20115;-46
2023/12/12 04:51:08;;;;;;;6.30;4.07;;;;;;;15.42;84.38;98229.25;5092495;28;20095;-48
2023/12/12 04:53:34;;;;;;;7.18;4.20;;;;;;;15.09;84.25;98222.97;5092433;28;20463;-49
2023/12/12 04:56:00;;;;;;;5.50;3.30;;;;;;;14.91;85.35;98215.25;5090138;28;20103;-49
2023/12/12 04:58:25;;;;;;;2.97;2.20;;;;;;;14.67;85.27;98219.88;5091086;28;20494;-49
2023/12/12 05:00:51;;;;;;;5.55;2.90;;;;;;;14.56;84.97;98222.34;5092379;28;20027;-48
2023/12/12 05:03:17;;;;;;;4.50;2.25;;;;;;;14.54;85.63;98215.66;5092306;28;20115;-49
2023/12/12 05:05:44;;;;;;;3.17;1.80;;;;;;;14.67;84.63;98212.75;5090903;28;20056;-48
2023/12/12 05:08:11;;;;;;;2.90;1.35;;;;;;;14.97;86.10;98206.38;5092267;28;20397;-48
2023/12/12 05:10:37;;;;;;;4.68;1.83;;;;;;;15.34;84.76;98214.59;5091040;28;20087;-48
2023/12/12 05:13:02;;;;;;;2.88;1.65;;;;;;;15.55;82.82;98213.03;5090768;28;20451;-48
2023/12/12 05:15:29;;;;;;;7.65;1.70;;;;;;;15.92;82.72;98219.63;5091162;28;20490;-48
2023/12/12 05:17:54;;;;;;;4.22;1.50;;;;;;;16.35;80.24;98215.31;5090798;28;20027;-48
2023/12/12 05:20:20;;;;;;;5.00;1.77;;;;;;;16.45;76.69;98202.19;5090772;28;20157;-48
2023/12/12 05:22:45;;;;;;;4.22;2.35;;;;;;;16.09;76.05;98201.00;5092099;28;20020;-48
2023/12/12 05:25:11;;;;;;;4.22;1.55;;;;;;;15.69;75.58;98188.88;5092001;28;20024;-48
2023/12/12 05:27:37;;;;;;;5.32;1.60;;;;;;;15.35;76.61;98199.53;5092045;28;20115;-49
2023/12/12 05:30:03;;;;;;;4.22;1.48;;;;;;;15.17;78.71;98225.19;5091972;28;20386;-48
2023/12/12 05:32:29;;;;;;;13.45;2.05;;;;;;;15.81;81.14;98231.13;5090601;28;20497;-48
2023/12/12 05:34:55;;;;;;;10.68;2.45;;;;;;;16.64;79.10;98247.69;5091786;28;20059;-49
2023/12/12 05:37:21;;;;;;;12.10;2.67;;;;;;;16.86;77.40;98257.44;5090401;28;20044;-48
2023/12/12 05:39:47;;;;;;;5.38;2.05;;;;;;;17.10;76.63;98250.75;5091887;28;20024;-48
2023/12/12 05:42:13;;;;;;;9.45;2.00;;;;;;;16.91;74.96;98236.28;5090443;28;20024;-48
2023/12/12 05:44:38;;;;;;;7.72;2.35;;;;;;;16.85;76.37;98232.78;5090543;28;20028;-48
2023/12/12 05:47:04;;;;;;;5.60;1.60;;;;;;;16.89;76.43;98233.09;5091730;28;20032;-48
2023/12/12 05:49:30;;;;;;;13.25;2.85;;;;;;;16.98;77.18;98231.56;5090447;28;20031;-48
2023/12/12 05:51:55;;;;;;;13.40;3.30;;;;;;;16.96;77.10;98236.31;5091763;28;20444;-48
2023/12/12 05:54:22;;;;;;;6.10;2.60;;;;;;;16.68;76.56;98240.00;5091683;28;20104;-48
2023/12/12 05:56:47;;;;;;;8.90;3.03;;;;;;;16.25;78.15;98234.53;5091745;28;20115;-48
2023/12/12 05:59:14;;;;;;;10.57;2.47;;;;;;;16.20;79.67;98223.91;5090685;28;20442;-49
2023/12/12 06:01:42;;;;;;;6.65;2.40;;;;;;;16.15;79.73;98227.28;5091675;28;20020;-48
2023/12/12 06:04:12;;;;;;;4.60;2.42;;;;;;;15.96;75.32;98231.31;5090275;28;20043;-48
2023/12/12 06:06:42;;;;;;;4.07;1.10;;;;;;;15.46;76.83;98245.44;5091676;28;20020;-48
2023/12/12 06:09:09;;;;;;;15.48;8.20;;;;;;;14.96;79.37;98263.69;5095513;28;20032;-48
2023/12/12 06:11:36;;;;;;;37.75;8.98;;;;;;;14.88;84.97;98264.09;5095473;28;20089;-48
2023/12/12 06:14:03;;;;;;;35.85;7.78;;;;;;;14.83;86.82;98265.84;5095438;28;20024;-48
2023/12/12 06:16:30;;;;;;;13.13;4.18;;;;;;;14.56;88.89;98283.06;5094179;28;20024;-48
2023/12/12 06:18:56;;;;;;;29.27;6.45;;;;;;;14.47;93.29;98288.97;5095413;28;20028;-48
2023/12/12 06:21:22;;;;;;;20.50;7.55;;;;;;;14.42;96.14;98300.19;5094068;28;20016;-48
2023/12/12 06:23:47;;;;;;;12.13;4.60;;;;;;;14.30;98.24;98305.50;5094023;28;20032;-48
2023/12/12 06:26:14;;;;;;;19.98;4.90;;;;;;;14.15;100.00;98307.84;5095271;28;20024;-48
2023/12/12 06:28:40;;;;;;;12.73;4.43;;;;;;;14.36;100.00;98306.41;5095233;28;20028;-48
2023/12/12 06:31:07;;;;;;;14.20;5.45;;;;;;;14.38;100.00;98310.41;5095210;28;20036;-48
2023/12/12 06:33:33;;;;;;;62.65;56.28;;;;;;;14.41;100.00;98317.09;5095087;28;20489;-48
2023/12/12 06:35:59;;;;;;;24.80;8.75;;;;;;;14.56;100.00;98321.88;5094787;28;20051;-49
2023/12/12 06:38:25;;;;;;;19.13;13.52;;;;;;;14.23;100.00;98315.41;5093827;28;20036;-48
2023/12/12 06:40:52;;;;;;;20.05;14.73;;;;;;;14.09;100.00;98299.03;5094952;28;20096;-48
2023/12/12 06:43:18;;;;;;;7.50;4.95;;;;;;;13.90;100.00;98281.72;5094980;28;20054;-48
2023/12/12 06:45:44;;;;;;;8.77;3.72;;;;;;;13.56;100.00;98276.25;5093575;28;20519;-48
2023/12/12 06:48:12;;;;;;;11.48;4.88;;;;;;;13.52;100.00;98275.91;5094917;28;20020;-48
2023/12/12 06:50:38;;;;;;;7.05;4.63;;;;;;;13.36;100.00;98276.56;5094817;28;20038;-48
2023/12/12 06:53:03;;;;;;;9.48;5.80;;;;;;;13.37;100.00;98278.19;5076454;28;20115;-48
2023/12/12 06:55:29;;;;;;;9.70;5.38;;;;;;;13.28;100.00;98279.53;5094760;28;20106;-48
2023/12/12 06:57:55;;;;;;;40.42;30.60;;;;;;;13.17;100.00;98276.66;5094597;28;20112;-48
2023/12/12 07:00:21;;;;;;;17.73;15.52;;;;;;;13.30;100.00;98274.84;5094646;28;20024;-48
2023/12/12 07:02:47;;;;;;;19.73;6.07;;;;;;;13.39;100.00;98263.75;5094636;28;20093;-48
2023/12/12 07:05:15;;;;;;;9.48;2.78;;;;;;;13.40;100.00;98251.41;5094539;28;20390;-48
2023/12/12 07:07:40;;;;;;;5.95;2.05;;;;;;;13.21;100.00;98257.75;5094556;28;20083;-48
2023/12/12 07:10:06;;;;;;;4.68;2.10;;;;;;;13.13;100.00;98257.06;5094423;28;20498;-48
2023/12/12 07:12:33;;;;;;;7.00;1.80;;;;;;;13.13;100.00;98257.06;5093122;28;20062;-48
2023/12/12 07:14:59;;;;;;;6.88;1.98;;;;;;;13.13;100.00;98262.31;5094317;28;20432;-48
2023/12/12 07:17:24;;;;;;;4.82;2.00;;;;;;;13.21;100.00;98265.66;5092470;28;20026;-49
2023/12/12 07:19:50;;;;;;;4.88;1.83;;;;;;;13.37;100.00;98279.00;5092705;28;20123;-48
2023/12/12 07:22:16;;;;;;;7.50;1.85;;;;;;;13.99;100.00;98270.59;5092844;28;20077;-48
2023/12/12 07:24:41;;;;;;;7.38;2.25;;;;;;;14.57;100.00;98282.03;5094235;28;20028;-48
2023/12/12 07:27:07;;;;;;;20.75;3.30;;;;;;;15.10;100.00;98274.75;5094114;28;20389;-48
2023/12/12 07:29:33;;;;;;;13.32;2.25;;;;;;;15.43;100.00;98273.16;5094056;28;20081;-48
2023/12/12 07:31:59;;;;;;;10.18;2.90;;;;;;;15.38;100.00;98263.31;5094259;28;20020;-48
2023/12/12 07:34:25;;;;;;;8.90;3.78;;;;;;;15.16;100.00;98254.50;5093928;28;20016;-49
2023/12/12 07:36:51;;;;;;;12.45;3.53;;;;;;;15.17;100.00;98264.03;5092424;28;20040;-49
2023/12/12 07:39:16;;;;;;;5.20;2.70;;;;;;;15.14;100.00;98264.50;5093950;28;20043;-48
2023/12/12 07:41:43;;;;;;;6.38;2.85;;;;;;;14.98;100.00;98261.63;5092605;28;20076;-49
2023/12/12 07:44:09;;;;;;;13.02;5.40;;;;;;;15.12;100.00;98250.75;5093781;28;20576;-48
2023/12/12 07:46:38;;;;;;;12.75;3.83;;;;;;;15.58;100.00;98246.94;5093742;28;20035;-48
2023/12/12 07:49:07;;;;;;;6.85;1.95;;;;;;;15.90;100.00;98240.25;5093693;28;20024;-49
2023/12/12 07:51:33;;;;;;;6.15;3.05;;;;;;;16.01;100.00;98244.59;5093930;28;20375;-48
2023/12/12 07:54:01;;;;;;;5.47;2.72;;;;;;;16.12;100.00;98246.31;5093535;28;20027;-49
2023/12/12 07:56:27;;;;;;;4.85;1.77;;;;;;;15.74;98.88;98247.97;5093517;28;20140;-49
2023/12/12 07:58:52;;;;;;;7.97;2.90;;;;;;;15.38;100.00;98244.00;5093567;28;20452;-49
2023/12/12 08:01:18;;;;;;;3.75;2.55;;;;;;;15.34;100.00;98238.38;5093483;28;20024;-49
2023/12/12 08:03:44;;;;;;;5.68;2.50;;;;;;;15.17;99.30;98235.75;5093412;28;20051;-49
2023/12/12 08:06:10;;;;;;;5.32;1.92;;;;;;;15.04;99.98;98237.94;5092087;28;20104;-49
2023/12/12 08:08:36;;;;;;;4.25;1.70;;;;;;;15.04;100.00;98237.94;5075175;28;20367;-48
2023/12/12 08:11:02;;;;;;;10.38;1.60;;;;;;;15.22;100.00;98244.81;5093264;28;20052;-49
2023/12/12 08:13:28;;;;;;;4.30;1.90;;;;;;;15.41;100.00;98253.28;5093141;28;20450;-49
2023/12/12 08:15:53;;;;;;;9.98;2.38;;;;;;;15.71;100.00;98256.34;5091934;28;20028;-48
2023/12/12 08:18:19;;;;;;;18.67;4.15;;;;;;;16.17;100.00;98256.97;5093132;28;20410;-48
2023/12/12 08:20:44;;;;;;;8.30;3.67;;;;;;;16.62;99.30;98263.03;5091827;28;20389;-49
2023/12/12 08:23:10;;;;;;;16.95;3.70;;;;;;;16.73;98.42;98245.38;5093076;28;20500;-49
2023/12/12 08:25:36;;;;;;;20.02;5.22;;;;;;;16.81;100.00;98244.13;5092978;28;20021;-49
2023/12/12 08:28:03;;;;;;;11.55;3.65;;;;;;;16.80;100.00;98238.00;5092960;28;20081;-48
2023/12/12 08:30:28;;;;;;;13.73;3.80;;;;;;;17.03;100.00;98239.56;5091344;28;20024;-49
2023/12/12 08:32:54;;;;;;;16.63;2.97;;;;;;;17.36;98.52;98227.88;5092768;28;20035;-49
2023/12/12 08:35:20;;;;;;;13.95;3.03;;;;;;;17.51;96.87;98232.47;5092527;28;20027;-49
2023/12/12 08:37:45;;;;;;;11.45;6.05;;;;;;;17.57;95.66;98228.00;5092743;28;20035;-49
2023/12/12 08:40:11;;;;;;;25.17;9.52;;;;;;;17.65;94.37;98227.50;5091431;28;20028;-49
2023/12/12 08:42:39;;;;;;;25.90;10.65;;;;;;;17.77;93.32;98225.44;5092728;28;20024;-49
2023/12/12 08:45:05;;;;;;;20.42;5.70;;;;;;;17.93;93.62;98223.69;5092596;28;20024;-48
2023/12/12 08:47:31;;;;;;;18.33;3.33;;;;;;;18.17;92.18;98228.56;5091275;28;20054;-49
2023/12/12 08:49:59;;;;;;;12.70;3.30;;;;;;;18.15;90.98;98212.09;5092536;28;20434;-49
2023/12/12 08:52:26;;;;;;;8.80;2.20;;;;;;;18.01;90.85;98225.03;5092756;28;20084;-49
2023/12/12 08:54:52;;;;;;;11.13;2.97;;;;;;;18.03;90.76;98230.06;5092322;28;20028;-46
2023/12/12 08:57:18;;;;;;;12.52;3.80;;;;;;;18.27;90.24;98233.91;5091131;28;20027;-46
2023/12/12 08:59:44;;;;;;;13.73;2.35;;;;;;;18.33;89.13;98222.22;5092420;28;20494;-46
2023/12/12 09:02:10;;;;;;;5.78;2.00;;;;;;;18.46;89.09;98214.81;5090956;28;20024;-47
2023/12/12 09:04:36;;;;;;;14.93;2.22;;;;;;;18.60;86.68;98215.88;5092305;28;20024;-46
2023/12/12 09:07:02;;;;;;;4.35;1.95;;;;;;;18.69;83.08;98221.47;5092267;28;20027;-46
2023/12/12 09:09:28;;;;;;;5.90;2.28;;;;;;;18.73;82.80;98225.19;5090909;28;20031;-46
2023/12/12 09:11:54;;;;;;;7.47;2.10;;;;;;;18.85;83.08;98201.03;5092158;28;20074;-46
2023/12/12 09:14:20;;;;;;;10.88;2.40;;;;;;;19.09;82.58;98196.75;5092366;28;20028;-46
2023/12/12 09:16:46;;;;;;;9.00;2.47;;;;;;;19.33;81.76;98196.19;5092047;28;20505;-46
2023/12/12 09:19:14;;;;;;;11.00;2.60;;;;;;;19.53;80.10;98193.47;5092122;28;20028;-46
2023/12/12 09:21:41;;;;;;;18.65;3.30;;;;;;;19.41;78.51;98192.97;5092076;28;20161;-46
2023/12/12 09:24:07;;;;;;;11.02;3.78;;;;;;;19.60;78.37;98193.22;5092078;28;20449;-46
2023/12/12 09:26:33;;;;;;;7.28;2.53;;;;;;;19.59;76.88;98188.94;5091971;28;20028;-46
2023/12/12 09:28:59;;;;;;;7.65;2.72;;;;;;;19.59;78.70;98191.59;5092006;28;20039;-46
2023/12/12 09:31:29;;;;;;;12.13;4.13;;;;;;;19.08;78.76;98189.84;5090648;28;20494;-46
2023/12/12 09:33:55;;;;;;;4.35;2.13;;;;;;;18.29;79.58;98197.25;5091855;28;20059;-46
2023/12/12 09:36:21;;;;;;;5.75;2.58;;;;;;;18.10;84.13;98207.53;5090300;28;20040;-46
2023/12/12 09:38:47;;;;;;;10.27;2.70;;;;;;;18.10;85.02;98206.75;5090551;28;20039;-46
2023/12/12 09:41:20;;;;;;;10.35;2.10;;;;;;;18.13;84.65;98191.09;5094147;28;20020;-46
2023/12/12 09:43:48;;;;;;;5.93;2.25;;;;;;;18.07;82.64;98181.50;5097495;28;20039;-46
2023/12/12 09:46:15;;;;;;;8.02;3.70;;;;;;;17.96;81.87;98185.19;5097226;28;20374;-46
2023/12/12 09:48:43;;;;;;;147.93;13.82;;;;;;;17.69;81.01;98183.47;5098566;28;20081;-46
2023/12/12 09:51:11;;;;;;;72.03;9.55;;;;;;;17.73;82.05;98186.41;5098518;28;20107;-46
2023/12/12 09:53:40;;;;;;;220.23;13.15;;;;;;;18.20;81.16;98171.44;5098462;28;20023;-46
2023/12/12 09:56:08;;;;;;;15.68;3.50;;;;;;;18.43;75.68;98163.00;5098492;28;20039;-46
2023/12/12 09:58:34;;;;;;;19.83;2.63;;;;;;;18.28;75.25;98160.31;5098486;28;20610;-46
2023/12/12 10:01:02;;;;;;;23.40;3.35;;;;;;;18.37;75.80;98164.03;5080289;28;20028;-46
2023/12/12 10:03:29;;;;;;;25.58;2.80;;;;;;;18.91;74.84;98165.41;5098439;28;20032;-46
2023/12/12 10:06:00;;;;;;;12.55;2.65;;;;;;;19.46;72.66;98162.91;5097047;28;20390;-46
2023/12/12 10:08:26;;;;;;;11.15;2.03;;;;;;;19.73;69.88;98157.25;5097139;28;20079;-46
2023/12/12 10:10:52;;;;;;;27.10;2.70;;;;;;;19.79;68.93;98156.16;5080184;28;20065;-46
2023/12/12 10:13:19;;;;;;;5.22;2.50;;;;;;;19.81;66.33;98159.34;5098214;28;20035;-46
2023/12/12 10:15:45;;;;;;;7.32;1.85;;;;;;;19.63;66.10;98154.59;5098269;28;20240;-46
2023/12/12 10:18:10;;;;;;;3.50;1.80;;;;;;;19.38;66.86;98150.16;5098356;28;20028;-46
2023/12/12 10:20:36;;;;;;;7.38;1.98;;;;;;;19.49;67.60;98144.53;5098295;28;20027;-46
2023/12/12 10:23:03;;;;;;;8.63;2.78;;;;;;;19.57;66.63;98140.50;5096969;28;20389;-46
2023/12/12 10:25:31;;;;;;;4.30;1.77;;;;;;;19.40;66.36;98142.69;5098188;28;20031;-46
2023/12/12 10:27:58;;;;;;;4.03;1.80;;;;;;;19.31;66.74;98150.44;5098768;28;20398;-46
2023/12/12 10:30:24;;;;;;;8.38;2.58;;;;;;;19.19;66.56;98142.75;5098112;28;20012;-46
2023/12/12 10:32:53;;;;;;;8.55;2.40;;;;;;;18.97;67.08;98137.75;5098112;28;20116;-46
2023/12/12 10:35:23;;;;;;;5.55;2.30;;;;;;;18.70;67.39;98132.69;5096549;28;20397;-47
2023/12/12 10:37:50;;;;;;;10.10;2.42;;;;;;;18.72;68.64;98138.53;5098128;28;20036;-46
2023/12/12 10:40:23;;;;;;;4.85;3.90;;;;;;;18.70;68.03;98128.16;5098054;28;20501;-46
2023/12/12 10:42:49;;;;;;;4.18;2.70;;;;;;;18.42;68.92;98107.44;5080832;28;20020;-46
2023/12/12 10:45:16;;;;;;;5.55;3.30;;;;;;;18.14;69.78;98107.69;5098040;28;20501;-46
2023/12/12 10:47:45;;;;;;;4.82;3.40;;;;;;;17.96;70.92;98108.19;5096708;28;20114;-46
2023/12/12 10:50:15;;;;;;;4.75;2.28;;;;;;;17.87;71.25;98112.44;5098300;28;20020;-46
2023/12/12 10:52:43;;;;;;;6.10;3.08;;;;;;;17.67;71.24;98116.59;5096692;28;20063;-46
2023/12/12 10:55:13;;;;;;;6.05;3.58;;;;;;;17.49;71.73;98112.53;5094681;28;20020;-46
2023/12/12 10:57:42;;;;;;;4.68;2.22;;;;;;;17.41;71.59;98104.28;5094739;28;20067;-46
2023/12/12 11:00:14;;;;;;;7.47;3.60;;;;;;;17.37;72.94;98091.53;5094626;28;20032;-46
2023/12/12 11:02:41;;;;;;;8.38;3.22;;;;;;;17.86;73.35;98085.06;5094647;28;20032;-46
2023/12/12 11:05:10;;;;;;;9.90;4.78;;;;;;;18.19;71.81;98087.50;5094582;28;20111;-46
2023/12/12 11:07:37;;;;;;;6.15;2.90;;;;;;;18.17;70.92;98085.94;5094781;28;20028;-46
2023/12/12 11:10:09;;;;;;;8.15;5.00;;;;;;;18.19;71.51;98092.81;5094452;28;20024;-46
2023/12/12 11:12:44;;;;;;;10.70;4.32;;;;;;;18.42;70.45;98084.34;5093199;28;20425;-46
2023/12/12 11:15:12;;;;;;;5.80;3.20;;;;;;;18.14;69.84;98089.09;5093199;28;20399;-46
2023/12/12 11:17:38;;;;;;;5.95;4.05;;;;;;;17.72;70.73;98087.38;5094218;28;20502;-46
2023/12/12 11:20:15;;;;;;;5.45;3.15;;;;;;;17.42;72.67;98100.56;5094228;28;20085;-46
2023/12/12 11:22:43;;;;;;;6.90;3.20;;;;;;;17.89;73.36;98089.88;5094253;28;20028;-46